createdAt,value
2019-01-26T00:01:00.000Z,-2.1
2019-01-26T00:06:00.000Z,-2.1
2019-01-26T00:11:00.000Z,-2.2
2019-01-26T00:16:00.000Z,-2.1
2019-01-26T00:21:00.000Z,-2.1
2019-01-26T00:26:00.000Z,-2.1
2019-01-26T00:31:00.000Z,-2.0
2019-01-26T00:36:00.000Z,-2.0
2019-01-26T00:41:00.000Z,-2.0
2019-01-26T00:46:00.000Z,-1.9
2019-01-26T00:51:00.000Z,-1.9
2019-01-26T00:56:00.000Z,-1.9
2019-01-26T01:01:00.000Z,-1.8
2019-01-26T01:06:00.000Z,-1.8
2019-01-26T01:11:00.000Z,-1.8
2019-01-26T01:16:00.000Z,-1.8
2019-01-26T01:21:00.000Z,-1.8
2019-01-26T01:26:00.000Z,-1.8
2019-01-26T01:31:00.000Z,-1.8
2019-01-26T01:36:00.000Z,-1.9
2019-01-26T01:41:00.000Z,-1.9
2019-01-26T01:46:00.000Z,-1.9
2019-01-26T01:51:00.000Z,-1.9
2019-01-26T01:56:00.000Z,-1.8
2019-01-26T02:01:00.000Z,-1.8
2019-01-26T02:06:00.000Z,-1.8
2019-01-26T02:11:00.000Z,-1.7
2019-01-26T02:16:00.000Z,-1.7
2019-01-26T02:21:00.000Z,-1.7
2019-01-26T02:26:00.000Z,-1.7
2019-01-26T02:31:00.000Z,-1.7
2019-01-26T02:36:00.000Z,-1.7
2019-01-26T02:41:00.000Z,-1.7
2019-01-26T02:46:00.000Z,-1.7
2019-01-26T02:51:00.000Z,-1.7
2019-01-26T02:56:00.000Z,-1.7
2019-01-26T03:02:00.000Z,-1.6
2019-01-26T03:07:00.000Z,-1.6
2019-01-26T03:12:00.000Z,-1.6
2019-01-26T03:17:00.000Z,-1.5
2019-01-26T03:22:00.000Z,-1.5
2019-01-26T03:27:00.000Z,-1.4
2019-01-26T03:32:00.000Z,-1.4
2019-01-26T03:37:00.000Z,-1.3
2019-01-26T03:42:00.000Z,-1.2
2019-01-26T03:47:00.000Z,-1.2
2019-01-26T03:52:00.000Z,-1.2
2019-01-26T03:57:00.000Z,-1.2
2019-01-26T04:02:00.000Z,-1.2
2019-01-26T04:07:00.000Z,-1.1
2019-01-26T04:12:00.000Z,-1.1
2019-01-26T04:17:00.000Z,-1.1
2019-01-26T04:22:00.000Z,-1.0
2019-01-26T04:27:00.000Z,-1.0
2019-01-26T04:32:00.000Z,-1.0
2019-01-26T04:37:00.000Z,-0.9
2019-01-26T04:42:00.000Z,-0.9
2019-01-26T04:47:00.000Z,-0.9
2019-01-26T04:52:00.000Z,-0.8
2019-01-26T04:57:00.000Z,-0.9
2019-01-26T05:02:00.000Z,-0.8
2019-01-26T05:07:00.000Z,-0.8
2019-01-26T05:12:00.000Z,-0.8
2019-01-26T05:17:00.000Z,-0.8
2019-01-26T05:22:00.000Z,-0.7
2019-01-26T05:27:00.000Z,-0.6
2019-01-26T05:32:00.000Z,-0.6
2019-01-26T05:37:00.000Z,-0.5
2019-01-26T05:42:00.000Z,-0.5
2019-01-26T05:47:00.000Z,-0.4
2019-01-26T05:52:00.000Z,-0.3
2019-01-26T05:57:00.000Z,-0.2
2019-01-26T06:02:00.000Z,-0.1
2019-01-26T06:07:00.000Z,0.1
2019-01-26T06:12:00.000Z,0.2
2019-01-26T06:17:00.000Z,0.2
2019-01-26T06:22:00.000Z,0.4
2019-01-26T06:27:00.000Z,0.5
2019-01-26T06:32:00.000Z,0.6
2019-01-26T06:37:00.000Z,0.6
2019-01-26T06:42:00.000Z,0.7
2019-01-26T06:47:00.000Z,0.8
2019-01-26T06:53:00.000Z,0.9
2019-01-26T06:58:00.000Z,0.9
2019-01-26T07:03:00.000Z,1.0
2019-01-26T07:08:00.000Z,1.0
2019-01-26T07:13:00.000Z,1.0
2019-01-26T07:18:00.000Z,1.1
2019-01-26T07:23:00.000Z,1.1
2019-01-26T07:28:00.000Z,1.1
2019-01-26T07:33:00.000Z,1.2
2019-01-26T07:38:00.000Z,1.1
2019-01-26T07:43:00.000Z,1.1
2019-01-26T07:48:00.000Z,1.2
2019-01-26T07:53:00.000Z,1.1
2019-01-26T07:58:00.000Z,1.2
2019-01-26T08:03:00.000Z,1.1
2019-01-26T08:08:00.000Z,1.1
2019-01-26T08:13:00.000Z,1.0
2019-01-26T08:18:00.000Z,1.0
2019-01-26T08:23:00.000Z,1.0
2019-01-26T08:28:00.000Z,1.0
2019-01-26T08:33:00.000Z,1.0
2019-01-26T08:38:00.000Z,1.0
2019-01-26T08:43:00.000Z,1.0
2019-01-26T08:48:00.000Z,0.9
2019-01-26T08:53:00.000Z,0.9
2019-01-26T08:58:00.000Z,0.9
2019-01-26T09:03:00.000Z,0.9
2019-01-26T09:08:00.000Z,0.9
2019-01-26T09:13:00.000Z,0.9
2019-01-26T09:18:00.000Z,0.8
2019-01-26T09:23:00.000Z,0.9
2019-01-26T09:28:00.000Z,0.9
2019-01-26T09:33:00.000Z,0.9
2019-01-26T09:38:00.000Z,1.0
2019-01-26T09:43:00.000Z,1.0
2019-01-26T09:48:00.000Z,1.1
2019-01-26T09:53:00.000Z,1.1
2019-01-26T09:58:00.000Z,1.2
2019-01-26T10:03:00.000Z,1.4
2019-01-26T10:08:00.000Z,1.5
2019-01-26T10:13:00.000Z,1.6
2019-01-26T10:18:00.000Z,1.7
2019-01-26T10:23:00.000Z,1.9
2019-01-26T10:28:00.000Z,2.0
2019-01-26T10:33:00.000Z,2.1
2019-01-26T10:38:00.000Z,2.3
2019-01-26T10:43:00.000Z,2.4
2019-01-26T10:48:00.000Z,2.5
2019-01-26T10:54:00.000Z,2.7
2019-01-26T10:59:00.000Z,2.9
2019-01-26T11:04:00.000Z,3.0
2019-01-26T11:09:00.000Z,3.1
2019-01-26T11:14:00.000Z,3.1
2019-01-26T11:19:00.000Z,3.1
2019-01-26T11:24:00.000Z,3.1
2019-01-26T11:29:00.000Z,3.1
2019-01-26T11:34:00.000Z,3.2
2019-01-26T11:39:00.000Z,3.3
2019-01-26T11:44:00.000Z,3.3
2019-01-26T11:49:00.000Z,3.4
2019-01-26T11:54:00.000Z,3.4
2019-01-26T11:59:00.000Z,3.4
2019-01-26T12:04:00.000Z,3.4
2019-01-26T12:09:00.000Z,3.5
2019-01-26T12:14:00.000Z,3.5
2019-01-26T12:19:00.000Z,3.5
2019-01-26T12:24:00.000Z,3.5
2019-01-26T12:29:00.000Z,3.6
2019-01-26T12:34:00.000Z,3.6
2019-01-26T12:39:00.000Z,3.5
2019-01-26T12:44:00.000Z,3.5
2019-01-26T12:49:00.000Z,3.4
2019-01-26T12:54:00.000Z,3.4
2019-01-26T12:59:00.000Z,3.4
2019-01-26T13:04:00.000Z,3.3
2019-01-26T13:09:00.000Z,3.3
2019-01-26T13:14:00.000Z,3.2
2019-01-26T13:19:00.000Z,3.2
2019-01-26T13:24:00.000Z,3.2
2019-01-26T13:29:00.000Z,3.1
2019-01-26T13:34:00.000Z,3.1
2019-01-26T13:39:00.000Z,3.1
2019-01-26T13:44:00.000Z,3.0
2019-01-26T13:49:00.000Z,3.0
2019-01-26T13:54:00.000Z,3.0
2019-01-26T13:59:00.000Z,3.1
2019-01-26T14:04:00.000Z,3.1
2019-01-26T14:09:00.000Z,3.2
2019-01-26T14:14:00.000Z,3.2
2019-01-26T14:19:00.000Z,3.3
2019-01-26T14:24:00.000Z,3.3
2019-01-26T14:29:00.000Z,3.3
2019-01-26T14:34:00.000Z,3.4
2019-01-26T14:39:00.000Z,3.4
2019-01-26T14:44:00.000Z,3.4
2019-01-26T14:49:00.000Z,3.5
2019-01-26T14:54:00.000Z,3.5
2019-01-26T15:00:00.000Z,3.6
2019-01-26T15:05:00.000Z,3.6
2019-01-26T15:10:00.000Z,3.6
2019-01-26T15:15:00.000Z,3.6
2019-01-26T15:20:00.000Z,3.7
2019-01-26T15:25:00.000Z,3.7
2019-01-26T15:30:00.000Z,3.8
2019-01-26T15:35:00.000Z,3.7
2019-01-26T15:40:00.000Z,3.8
2019-01-26T15:45:00.000Z,3.7
2019-01-26T15:50:00.000Z,3.8
2019-01-26T15:55:00.000Z,3.8
2019-01-26T16:00:00.000Z,3.8
2019-01-26T16:05:00.000Z,3.9
2019-01-26T16:10:00.000Z,3.9
2019-01-26T16:15:00.000Z,3.9
2019-01-26T16:20:00.000Z,3.9
2019-01-26T16:25:00.000Z,4.0
2019-01-26T16:30:00.000Z,4.0
2019-01-26T16:35:00.000Z,4.0
2019-01-26T16:40:00.000Z,4.1
2019-01-26T16:45:00.000Z,4.1
2019-01-26T16:50:00.000Z,4.1
2019-01-26T16:55:00.000Z,4.1
2019-01-26T17:00:00.000Z,4.2
2019-01-26T17:05:00.000Z,4.2
2019-01-26T17:10:00.000Z,4.3
2019-01-26T17:15:00.000Z,4.3
2019-01-26T17:20:00.000Z,4.4
2019-01-26T17:25:00.000Z,4.5
2019-01-26T17:30:00.000Z,4.5
2019-01-26T17:35:00.000Z,4.6
2019-01-26T17:40:00.000Z,4.6
2019-01-26T17:45:00.000Z,4.7
2019-01-26T17:50:00.000Z,4.7
2019-01-26T17:55:00.000Z,4.7
2019-01-26T18:00:00.000Z,4.8
2019-01-26T18:05:00.000Z,4.8
2019-01-26T18:10:00.000Z,4.8
2019-01-26T18:15:00.000Z,4.8
2019-01-26T18:20:00.000Z,4.8
2019-01-26T18:25:00.000Z,4.8
2019-01-26T18:30:00.000Z,4.8
2019-01-26T18:35:00.000Z,4.8
2019-01-26T18:40:00.000Z,4.8
2019-01-26T18:45:00.000Z,4.8
2019-01-26T18:50:00.000Z,4.8
2019-01-26T18:55:00.000Z,4.8
2019-01-26T19:00:00.000Z,4.8
2019-01-26T19:05:00.000Z,4.8
2019-01-26T19:10:00.000Z,4.8
2019-01-26T19:16:00.000Z,4.8
2019-01-26T19:21:00.000Z,4.8
2019-01-26T19:26:00.000Z,4.9
2019-01-26T19:31:00.000Z,4.9
2019-01-26T19:36:00.000Z,4.9
2019-01-26T19:41:00.000Z,5.0
2019-01-26T19:46:00.000Z,5.0
2019-01-26T19:51:00.000Z,5.0
2019-01-26T19:56:00.000Z,5.0
2019-01-26T20:01:00.000Z,5.1
2019-01-26T20:06:00.000Z,5.1
2019-01-26T20:11:00.000Z,5.1
2019-01-26T20:16:00.000Z,5.1
2019-01-26T20:21:00.000Z,5.1
2019-01-26T20:26:00.000Z,5.1
2019-01-26T20:31:00.000Z,5.1
2019-01-26T20:36:00.000Z,5.1
2019-01-26T20:41:00.000Z,5.1
2019-01-26T20:46:00.000Z,5.1
2019-01-26T20:51:00.000Z,5.1
2019-01-26T20:56:00.000Z,5.2
2019-01-26T21:01:00.000Z,5.3
2019-01-26T21:06:00.000Z,5.3
2019-01-26T21:11:00.000Z,5.3
2019-01-26T21:16:00.000Z,5.4
2019-01-26T21:21:00.000Z,5.4
2019-01-26T21:26:00.000Z,5.5
2019-01-26T21:31:00.000Z,5.5
2019-01-26T21:36:00.000Z,5.5
2019-01-26T21:41:00.000Z,5.6
2019-01-26T21:46:00.000Z,5.6
2019-01-26T21:51:00.000Z,5.6
2019-01-26T21:56:00.000Z,5.7
2019-01-26T22:01:00.000Z,5.7
2019-01-26T22:06:00.000Z,5.7
2019-01-26T22:11:00.000Z,5.8
2019-01-26T22:16:00.000Z,5.8
2019-01-26T22:21:00.000Z,5.8
2019-01-26T22:26:00.000Z,5.8
2019-01-26T22:31:00.000Z,5.9
2019-01-26T22:36:00.000Z,5.9
2019-01-26T22:41:00.000Z,6.0
2019-01-26T22:46:00.000Z,6.1
2019-01-26T22:51:00.000Z,6.1
2019-01-26T22:56:00.000Z,6.2
2019-01-26T23:01:00.000Z,6.2
2019-01-26T23:06:00.000Z,6.3
2019-01-26T23:11:00.000Z,6.3
2019-01-26T23:16:00.000Z,6.3
2019-01-26T23:21:00.000Z,6.3
2019-01-26T23:26:00.000Z,6.3
2019-01-26T23:31:00.000Z,6.3
2019-01-26T23:37:00.000Z,6.3
2019-01-26T23:42:00.000Z,6.2
2019-01-26T23:47:00.000Z,6.3
2019-01-26T23:52:00.000Z,6.3
2019-01-26T23:57:00.000Z,6.3
